createdAt,value
2023-05-10T00:00:45.185Z,99903.47
2023-05-10T00:04:46.705Z,99906.00
2023-05-10T00:08:48.289Z,99901.69
2023-05-10T00:12:49.860Z,99902.56
2023-05-10T00:16:51.492Z,99900.84
2023-05-10T00:20:53.222Z,99899.06
2023-05-10T00:24:54.750Z,99894.75
2023-05-10T00:28:56.500Z,99890.41
2023-05-10T00:32:58.080Z,99899.00
2023-05-10T00:36:59.707Z,99904.19
2023-05-10T00:41:02.233Z,99896.44
2023-05-10T00:45:07.453Z,99905.94
2023-05-10T00:49:09.023Z,99910.22
2023-05-10T00:53:11.230Z,99909.34
2023-05-10T00:57:12.906Z,99916.19
2023-05-10T01:01:14.721Z,99914.44
2023-05-10T01:05:16.412Z,99911.84
2023-05-10T01:09:18.937Z,99916.97
2023-05-10T01:13:38.288Z,99916.13
2023-05-10T01:17:43.232Z,99922.16
2023-05-10T01:21:57.351Z,99924.75
2023-05-10T01:26:41.057Z,99909.25
2023-05-10T01:31:04.235Z,99924.75
2023-05-10T01:35:15.432Z,99933.34
2023-05-10T01:39:25.960Z,99935.91
2023-05-10T01:43:33.973Z,99930.69
2023-05-10T01:47:43.300Z,99928.09
2023-05-10T01:51:52.672Z,99930.69
2023-05-10T01:55:56.288Z,99931.53
2023-05-10T02:00:00.280Z,99931.53
2023-05-10T02:04:02.831Z,99938.38
2023-05-10T02:08:07.709Z,99942.66
2023-05-10T02:12:10.400Z,99943.53
2023-05-10T02:16:13.599Z,99941.72
2023-05-10T02:20:18.214Z,99951.19
2023-05-10T02:24:20.711Z,99946.06
2023-05-10T02:28:23.158Z,99952.97
2023-05-10T02:32:27.223Z,99956.38
2023-05-10T02:36:29.976Z,99955.53
2023-05-10T02:40:34.569Z,99955.56
2023-05-10T02:44:38.042Z,99955.53
2023-05-10T02:48:39.819Z,99971.03
2023-05-10T02:53:00.462Z,99965.84
2023-05-10T02:57:06.176Z,99969.25
2023-05-10T03:01:08.741Z,99970.09
2023-05-10T03:05:10.402Z,99964.06
2023-05-10T03:09:16.220Z,99975.25
2023-05-10T03:13:30.389Z,99971.72
2023-05-10T03:17:47.774Z,99973.38
2023-05-10T03:21:52.376Z,99972.44
2023-05-10T03:25:55.420Z,99969.75
2023-05-10T03:29:58.758Z,99969.59
2023-05-10T03:34:00.777Z,99984.09
2023-05-10T03:38:02.983Z,99976.25
2023-05-10T03:42:04.789Z,99983.13
2023-05-10T03:46:06.936Z,99985.75
2023-05-10T03:50:09.436Z,99990.00
2023-05-10T03:54:11.051Z,99989.09
2023-05-10T03:58:12.917Z,99989.03
2023-05-10T04:02:14.634Z,99996.63
2023-05-10T04:06:16.361Z,100003.44
2023-05-10T04:10:19.007Z,100003.41
2023-05-10T04:14:20.707Z,100015.38
2023-05-10T04:18:22.267Z,100016.25
2023-05-10T04:22:23.886Z,100011.06
2023-05-10T04:26:26.510Z,100018.78
2023-05-10T04:30:30.127Z,100017.94
2023-05-10T04:34:31.650Z,100009.38
2023-05-10T04:38:33.426Z,100011.09
2023-05-10T04:42:34.986Z,100011.94
2023-05-10T04:46:36.756Z,100014.56
2023-05-10T04:50:38.413Z,100022.28
2023-05-10T04:54:40.013Z,100016.28
2023-05-10T04:58:41.592Z,100024.88
2023-05-10T05:02:45.536Z,100020.53
2023-05-10T05:06:47.206Z,100024.06
2023-05-10T05:10:51.059Z,100019.03
2023-05-10T05:14:52.681Z,100020.06
2023-05-10T05:18:54.537Z,100026.22
2023-05-10T05:22:56.101Z,100030.53
2023-05-10T05:26:57.669Z,100033.97
2023-05-10T05:30:59.206Z,100037.47
2023-05-10T05:35:00.907Z,100031.56
2023-05-10T05:39:02.634Z,100036.00
2023-05-10T05:43:04.406Z,100033.63
2023-05-10T05:47:06.586Z,100038.13
2023-05-10T05:51:08.177Z,100038.19
2023-05-10T05:55:09.783Z,100048.59
2023-05-10T05:59:12.033Z,100056.38
2023-05-10T06:03:13.663Z,100058.16
2023-05-10T06:07:15.222Z,100080.63
2023-05-10T06:11:16.793Z,100063.47
2023-05-10T06:15:18.531Z,100082.38
2023-05-10T06:19:20.579Z,100082.44
2023-05-10T06:23:23.153Z,100084.22
2023-05-10T06:27:25.463Z,100098.16
2023-05-10T06:31:27.120Z,100105.09
2023-05-10T06:35:29.611Z,100095.66
2023-05-10T06:39:31.175Z,100095.63
2023-05-10T06:43:33.198Z,100104.16
2023-05-10T06:47:37.931Z,100095.44
2023-05-10T06:51:41.115Z,100101.41
2023-05-10T06:55:42.710Z,100111.72
2023-05-10T06:59:44.596Z,100101.56
2023-05-10T07:03:46.406Z,100105.28
2023-05-10T07:07:48.005Z,100112.28
2023-05-10T07:11:49.613Z,100113.19
2023-05-10T07:15:51.244Z,100123.63
2023-05-10T07:19:53.001Z,100102.16
2023-05-10T07:23:54.960Z,100097.97
2023-05-10T07:27:56.644Z,100089.34
2023-05-10T07:31:59.054Z,100097.19
2023-05-10T07:36:00.810Z,100100.66
2023-05-10T07:40:03.020Z,100100.66
2023-05-10T07:44:04.944Z,100102.41
2023-05-10T07:48:06.665Z,100107.59
2023-05-10T07:52:08.286Z,100104.13
2023-05-10T07:56:30.687Z,100115.41
2023-05-10T08:00:32.361Z,100105.06
2023-05-10T08:04:34.029Z,100112.78
2023-05-10T08:08:35.646Z,100105.84
2023-05-10T08:12:37.399Z,100116.19
2023-05-10T08:16:39.032Z,100111.88
2023-05-10T08:20:40.870Z,100122.25
2023-05-10T08:24:42.970Z,100112.78
2023-05-10T08:28:44.765Z,100119.69
2023-05-10T08:32:47.955Z,100117.09
2023-05-10T08:36:49.608Z,100116.25
2023-05-10T08:40:57.414Z,100124.94
2023-05-10T08:45:00.471Z,100124.06
2023-05-10T08:49:05.267Z,100128.31
2023-05-10T08:53:14.499Z,100139.53
2023-05-10T08:57:16.285Z,100145.56
2023-05-10T09:01:19.291Z,100148.16
2023-05-10T09:05:21.074Z,100153.34
2023-05-10T09:09:24.252Z,100145.59
2023-05-10T09:13:26.983Z,100149.97
2023-05-10T09:17:30.073Z,100155.13
2023-05-10T09:21:32.099Z,100149.03
2023-05-10T09:25:38.081Z,100158.63
2023-05-10T09:29:41.468Z,100160.34
2023-05-10T09:33:47.268Z,100163.81
2023-05-10T09:37:51.557Z,100163.81
2023-05-10T09:41:53.819Z,100158.56
2023-05-10T09:45:58.094Z,100155.97
2023-05-10T09:50:04.410Z,100162.94
2023-05-10T09:54:17.325Z,100171.53
2023-05-10T09:58:18.929Z,100181.81
2023-05-10T10:02:20.633Z,100193.75
2023-05-10T10:06:29.658Z,100195.44
2023-05-10T10:10:33.272Z,100181.53
2023-05-10T10:14:35.414Z,100193.53
2023-05-10T10:18:40.921Z,100196.69
2023-05-10T10:22:42.550Z,100192.16
2023-05-10T10:26:46.343Z,100192.41
2023-05-10T10:30:51.094Z,100190.19
2023-05-10T10:34:53.074Z,100182.72
2023-05-10T10:39:02.400Z,100184.56
2023-05-10T10:43:27.661Z,100177.59
2023-05-10T10:47:33.881Z,100172.31
2023-05-10T10:51:39.564Z,100171.41
2023-05-10T10:55:50.265Z,100170.59
2023-05-10T10:59:52.031Z,100167.13
2023-05-10T11:03:59.525Z,100184.47
2023-05-10T11:08:07.731Z,100187.06
2023-05-10T11:12:09.852Z,100192.31
2023-05-10T11:16:21.397Z,100194.94
2023-05-10T11:20:25.702Z,100194.94
2023-05-10T11:24:28.900Z,100185.38
2023-05-10T11:28:30.539Z,100181.03
2023-05-10T11:32:32.594Z,100178.34
2023-05-10T11:36:36.680Z,100190.44
2023-05-10T11:40:39.354Z,100194.66
2023-05-10T11:44:41.740Z,100197.19
2023-05-10T11:48:43.889Z,100189.28
2023-05-10T11:52:45.569Z,100191.88
2023-05-10T11:56:47.295Z,100187.59
2023-05-10T12:00:49.354Z,100201.50
2023-05-10T12:04:51.902Z,100190.16
2023-05-10T12:08:54.615Z,100196.16
2023-05-10T12:12:57.334Z,100196.00
2023-05-10T12:16:58.927Z,100207.13
2023-05-10T12:21:04.508Z,100196.78
2023-05-10T12:25:06.679Z,100207.28
2023-05-10T12:29:15.139Z,100209.94
2023-05-10T12:33:18.936Z,100212.38
2023-05-10T12:37:25.360Z,100206.78
2023-05-10T12:41:26.977Z,100201.63
2023-05-10T12:45:28.560Z,100205.84
2023-05-10T12:49:30.314Z,100200.44
2023-05-10T12:53:32.249Z,100207.31
2023-05-10T12:57:34.278Z,100203.91
2023-05-10T13:01:35.992Z,100203.09
2023-05-10T13:05:37.637Z,100198.38
2023-05-10T13:09:39.260Z,100207.00
2023-05-10T13:13:40.917Z,100203.00
2023-05-10T13:17:43.587Z,100198.22
2023-05-10T13:21:45.488Z,100213.16
2023-05-10T13:25:47.038Z,100216.66
2023-05-10T13:29:49.213Z,100209.59
2023-05-10T13:33:50.963Z,100201.75
2023-05-10T13:37:54.316Z,100204.19
2023-05-10T13:41:55.923Z,100209.38
2023-05-10T13:45:57.808Z,100202.38
2023-05-10T13:49:59.629Z,100189.97
2023-05-10T13:54:01.241Z,100184.56
2023-05-10T13:58:02.840Z,100189.94
2023-05-10T14:02:04.845Z,100180.34
2023-05-10T14:06:08.396Z,100178.72
2023-05-10T14:10:10.308Z,100172.59
2023-05-10T14:14:12.172Z,100188.47
2023-05-10T14:18:14.086Z,100177.31
2023-05-10T14:22:15.731Z,100171.41
2023-05-10T14:26:17.324Z,100166.06
2023-05-10T14:30:18.886Z,100162.38
2023-05-10T14:34:20.965Z,100156.00
2023-05-10T14:38:22.593Z,100148.75
2023-05-10T14:42:24.166Z,100162.69
2023-05-10T14:46:25.935Z,100152.13
2023-05-10T14:50:36.547Z,100157.53
2023-05-10T14:54:39.518Z,100160.25
2023-05-10T14:58:41.073Z,100157.66
2023-05-10T15:02:42.972Z,100146.56
2023-05-10T15:06:45.245Z,100151.53
2023-05-10T15:10:47.667Z,100142.78
2023-05-10T15:14:49.218Z,100142.78
2023-05-10T15:18:50.966Z,100151.03
2023-05-10T15:22:52.666Z,100133.13
2023-05-10T15:26:54.925Z,100133.06
2023-05-10T15:30:57.064Z,100151.50
2023-05-10T15:34:59.205Z,100137.19
2023-05-10T15:39:00.831Z,100138.47
2023-05-10T15:43:02.473Z,100139.22
2023-05-10T15:47:04.265Z,100143.03
2023-05-10T15:51:06.093Z,100147.78
2023-05-10T15:55:12.875Z,100150.72
2023-05-10T15:59:14.850Z,100150.91
2023-05-10T16:03:16.600Z,100157.91
2023-05-10T16:07:20.663Z,100153.63
2023-05-10T16:11:22.420Z,100155.34
2023-05-10T16:15:23.987Z,100162.56
2023-05-10T16:19:29.155Z,100148.56
2023-05-10T16:23:31.883Z,100157.94
2023-05-10T16:27:33.566Z,100158.81
2023-05-10T16:31:35.469Z,100158.28
2023-05-10T16:35:37.129Z,100163.56
2023-05-10T16:39:38.821Z,100160.56
2023-05-10T16:43:40.419Z,100146.75
2023-05-10T16:47:43.077Z,100159.13
2023-05-10T16:51:44.697Z,100167.72
2023-05-10T16:55:46.314Z,100165.16
2023-05-10T16:59:48.359Z,100174.78
2023-05-10T17:03:49.936Z,100174.00
2023-05-10T17:07:51.499Z,100172.31
2023-05-10T17:11:53.176Z,100179.34
2023-05-10T17:15:54.809Z,100179.44
2023-05-10T17:19:56.511Z,100183.94
2023-05-10T17:23:58.089Z,100190.03
2023-05-10T17:27:59.753Z,100191.88
2023-05-10T17:32:01.914Z,100208.41
2023-05-10T17:36:03.841Z,100204.19
2023-05-10T17:40:07.759Z,100202.50
2023-05-10T17:44:09.483Z,100205.16
2023-05-10T17:48:11.459Z,100204.28
2023-05-10T17:52:13.242Z,100209.56
2023-05-10T17:56:14.894Z,100209.59
2023-05-10T18:00:16.731Z,100219.97
2023-05-10T18:04:18.358Z,100214.75
2023-05-10T18:08:22.868Z,100223.44
2023-05-10T18:12:24.477Z,100214.81
2023-05-10T18:16:26.202Z,100218.28
2023-05-10T18:20:28.656Z,100215.69
2023-05-10T18:24:40.215Z,100220.88
2023-05-10T18:28:42.252Z,100229.53
2023-05-10T18:32:44.210Z,100221.72
2023-05-10T18:36:46.135Z,100226.91
2023-05-10T18:40:47.760Z,100226.91
2023-05-10T18:44:49.359Z,100233.78
2023-05-10T18:48:51.768Z,100238.91
2023-05-10T18:52:53.962Z,100234.56
2023-05-10T18:56:57.224Z,100248.34
2023-05-10T19:00:58.858Z,100245.69
2023-05-10T19:05:00.674Z,100249.13
2023-05-10T19:09:02.926Z,100262.00
2023-05-10T19:13:04.503Z,100266.25
2023-05-10T19:17:07.632Z,100273.16
2023-05-10T19:21:10.667Z,100270.56
2023-05-10T19:25:13.146Z,100278.34
2023-05-10T19:29:14.868Z,100286.13
2023-05-10T19:33:19.685Z,100283.56
2023-05-10T19:37:21.446Z,100287.88
2023-05-10T19:41:22.997Z,100294.75
2023-05-10T19:45:24.577Z,100298.16
2023-05-10T19:49:26.298Z,100308.50
2023-05-10T19:53:28.203Z,100305.00
2023-05-10T19:57:29.872Z,100303.22
2023-05-10T20:01:32.861Z,100309.22
2023-05-10T20:05:34.552Z,100304.78
2023-05-10T20:09:37.213Z,100328.00
2023-05-10T20:13:38.800Z,100323.56
2023-05-10T20:17:40.725Z,100321.78
2023-05-10T20:21:42.749Z,100321.75
2023-05-10T20:25:44.536Z,100315.69
2023-05-10T20:29:46.287Z,100327.72
2023-05-10T20:33:47.957Z,100325.06
2023-05-10T20:37:49.610Z,100327.69
2023-05-10T20:41:51.225Z,100319.94
2023-05-10T20:45:53.975Z,100327.66
2023-05-10T20:49:55.904Z,100324.13
2023-05-10T20:53:57.815Z,100321.41
2023-05-10T20:57:59.327Z,100323.03
2023-05-10T21:02:01.298Z,100320.38
2023-05-10T21:06:02.917Z,100329.56
2023-05-10T21:10:05.401Z,100329.53
2023-05-10T21:14:07.834Z,100328.75
2023-05-10T21:18:09.577Z,100327.94
2023-05-10T21:22:11.243Z,100321.09
2023-05-10T21:26:12.779Z,100325.41
2023-05-10T21:30:14.589Z,100315.88
2023-05-10T21:34:17.887Z,100313.28
2023-05-10T21:38:19.546Z,100312.34
2023-05-10T21:42:21.099Z,100317.41
2023-05-10T21:46:22.847Z,100317.28
2023-05-10T21:50:24.431Z,100317.22
2023-05-10T21:54:26.347Z,100307.66
2023-05-10T21:58:28.046Z,100311.94
2023-05-10T22:02:29.826Z,100314.47
2023-05-10T22:06:31.987Z,100318.72
2023-05-10T22:10:34.126Z,100316.94
2023-05-10T22:14:35.868Z,100316.09
2023-05-10T22:18:37.616Z,100314.34
2023-05-10T22:22:39.288Z,100312.53
2023-05-10T22:26:41.096Z,100317.66
2023-05-10T22:30:43.371Z,100315.88
2023-05-10T22:34:44.917Z,100319.19
2023-05-10T22:38:46.441Z,100322.56
2023-05-10T22:42:48.175Z,100326.81
2023-05-10T22:46:49.790Z,100324.16
2023-05-10T22:50:51.612Z,100332.66
2023-05-10T22:54:53.153Z,100330.91
2023-05-10T22:58:54.891Z,100327.41
2023-05-10T23:02:56.509Z,100332.53
2023-05-10T23:06:58.106Z,100336.78
2023-05-10T23:10:59.693Z,100342.81
2023-05-10T23:15:01.376Z,100343.66
2023-05-10T23:19:03.003Z,100347.19
2023-05-10T23:23:04.621Z,100349.81
2023-05-10T23:27:06.402Z,100348.06
2023-05-10T23:31:07.931Z,100346.25
2023-05-10T23:35:09.685Z,100357.38
2023-05-10T23:39:12.024Z,100365.84
2023-05-10T23:43:16.057Z,100356.34
2023-05-10T23:47:17.662Z,100358.91
2023-05-10T23:51:19.437Z,100350.19
2023-05-10T23:55:21.011Z,100350.94
2023-05-10T23:59:22.634Z,100348.28
